map of VRB home
VRB - Airport
Location
City:  Vero Beach, Florida, United States
Name:Vero Beach Regional
ICAO:KVRB
IATA:VRB
FAA LID:VRB

Details
Type:Airport (Part 139 Class I)
Use:Public/Civil
Latitude:2739'20"N (27.655556)
Longitude:8025'05"W (-80.417943)
Datum:WGS 1984
Elevation:23 ft (7 m)
Variation:6.89W (WMM2015v2 magnetic declination)
-0.07 annual change
Runways:3
Longest:7314 × 106 ft (2229 × 32.5 m), paved

Time
Time Zone:UTC-5 (DST-4)
Local Time:

Weather
METAR:KVRB 041353Z 32008KT 10SM OVC006 17/14 A3007 RMK AO2 SLP182 T01670144
TAF:KVRB 041321Z 0413/0512 34006KT P6SM OVC009
FM041500 36006KT P6SM SCT010 BKN025
FM041800 03008KT P6SM SCT025 SCT180
FM050000 VRB03KT P6SM SCT150 SCT250

Related Locations
Nearby:
Farthest:USL: 11588 mi / 18649 km
Useless Loop, WA, AU

Find:

   beyond  
but within

Other Information
Maps:
NOTAMs:
Links:
Sources:

  
  • flag of United States
  • flag of Florida
  

Airport Diagram

Airport diagram for VRB

Airport diagram PDF from FAA

Sectional Chart

Flight Planning
at skyvector.com

Satellite Image

Google Maps Satellite view

 

Copyright © 2004-2019 Karl L. Swartz. All rights reserved.
The Great Circle Mapper name and logo are trademarks of the Great Circle Mapper.
All other trademarks mentioned herein belong to their respective owners.
Please see credits for attibutions and further copyright information.

  Follow gcmap on Facebook Follow gcmap on Twitter GCmap on LinkedIn

hCard Microformat

Geo Microformat